Time;durP1;ratioP1;P1;durP2;ratioP2;P2;SDS_P1;SDS_P2;PMS_P1;PMS_P2;Temp;Humidity;BMP_temperature;BMP_pressure;BME280_temperature;BME280_humidity;BME280_pressure;Samples;Min_cycle;Max_cycle;Signal;HPM_P1;HPM_P2
2023/11/05 00:01:35;;;;;;;0.55;0.55;;;;;;;;;;5051426;28;20101;-87
2023/11/05 00:04:20;;;;;;;1.67;0.90;;;;;;;;;;5047891;28;20020;-88
2023/11/05 00:07:06;;;;;;;2.45;0.70;;;;;;;;;;5052595;28;20114;-87
2023/11/05 00:09:51;;;;;;;0.50;0.50;;;;;;;;;;5049944;28;20049;-88
2023/11/05 00:12:36;;;;;;;1.45;0.70;;;;;;;;;;5053949;28;20028;-88
2023/11/05 00:15:21;;;;;;;0.88;0.73;;;;;;;;;;5074642;28;20024;-88
2023/11/05 00:18:07;;;;;;;1.10;0.70;;;;;;;;;;5051182;28;20108;-88
2023/11/05 00:20:54;;;;;;;1.40;0.98;;;;;;;;;;5051997;28;20048;-87
2023/11/05 00:23:39;;;;;;;1.90;0.70;;;;;;;;;;5050793;28;20040;-89
2023/11/05 00:26:24;;;;;;;0.90;0.85;;;;;;;;;;5054301;28;20052;-88
2023/11/05 00:29:09;;;;;;;1.05;0.70;;;;;;;;;;5054104;28;20017;-88
2023/11/05 00:31:55;;;;;;;0.73;0.57;;;;;;;;;;5053983;28;20051;-86
2023/11/05 00:34:41;;;;;;;2.90;0.70;;;;;;;;;;5050116;28;20074;-87
2023/11/05 00:37:26;;;;;;;0.65;0.57;;;;;;;;;;5052978;28;20032;-88
2023/11/05 00:40:11;;;;;;;1.83;0.95;;;;;;;;;;5052756;28;20111;-88
2023/11/05 00:42:57;;;;;;;1.05;0.90;;;;;;;;;;5054879;28;20384;-88
2023/11/05 00:45:42;;;;;;;1.67;0.70;;;;;;;;;;5067237;28;20028;-88
2023/11/05 00:48:27;;;;;;;0.77;0.73;;;;;;;;;;5051809;28;20424;-86
2023/11/05 00:51:13;;;;;;;2.25;0.63;;;;;;;;;;5052556;28;20628;-87
2023/11/05 00:53:59;;;;;;;0.75;0.60;;;;;;;;;;5050457;28;20032;-87
2023/11/05 00:56:44;;;;;;;1.42;0.60;;;;;;;;;;5044108;28;20106;-87
2023/11/05 00:59:29;;;;;;;2.03;0.73;;;;;;;;;;5065796;28;20044;-87
2023/11/05 01:02:15;;;;;;;0.65;0.65;;;;;;;;;;5048651;28;20368;-88
2023/11/05 01:05:00;;;;;;;3.63;0.75;;;;;;;;;;5047296;28;20024;-88
2023/11/05 01:07:45;;;;;;;0.85;0.70;;;;;;;;;;5055636;28;20094;-88
2023/11/05 01:10:30;;;;;;;0.57;0.52;;;;;;;;;;5051621;28;20041;-88
2023/11/05 01:13:15;;;;;;;2.53;0.85;;;;;;;;;;5043380;28;20502;-88
2023/11/05 01:16:01;;;;;;;0.75;0.60;;;;;;;;;;5051260;28;20025;-89
2023/11/05 01:18:46;;;;;;;1.55;0.70;;;;;;;;;;5052330;28;20024;-88
2023/11/05 01:21:31;;;;;;;1.58;0.73;;;;;;;;;;5050283;28;20079;-87
2023/11/05 01:24:16;;;;;;;0.73;0.73;;;;;;;;;;5048485;28;20033;-87
2023/11/05 01:27:02;;;;;;;2.05;0.70;;;;;;;;;;5051014;28;20033;-88
2023/11/05 01:29:47;;;;;;;3.28;1.00;;;;;;;;;;5050235;28;20024;-87
2023/11/05 01:32:32;;;;;;;0.63;0.60;;;;;;;;;;5047648;28;20036;-86
2023/11/05 01:35:17;;;;;;;1.00;0.63;;;;;;;;;;5052373;28;20309;-86
2023/11/05 01:38:03;;;;;;;0.75;0.60;;;;;;;;;;5049125;28;20618;-86
2023/11/05 01:40:48;;;;;;;2.75;0.52;;;;;;;;;;5052960;28;20082;-85
2023/11/05 01:43:33;;;;;;;0.95;0.50;;;;;;;;;;5050249;28;20378;-86
2023/11/05 01:46:19;;;;;;;2.80;0.80;;;;;;;;;;5051034;28;20048;-86
2023/11/05 01:49:04;;;;;;;4.43;0.68;;;;;;;;;;5051727;28;20052;-86
2023/11/05 01:51:50;;;;;;;2.58;0.90;;;;;;;;;;5049802;28;20493;-87
2023/11/05 01:54:36;;;;;;;2.22;0.82;;;;;;;;;;5051606;28;20028;-88
2023/11/05 01:57:21;;;;;;;1.25;0.65;;;;;;;;;;5050413;28;20043;-88
2023/11/05 02:00:07;;;;;;;2.10;0.60;;;;;;;;;;5051185;28;20078;-88
2023/11/05 02:02:52;;;;;;;3.88;1.08;;;;;;;;;;5050751;28;20032;-87
2023/11/05 02:05:38;;;;;;;0.63;0.50;;;;;;;;;;5060266;28;20029;-87
2023/11/05 02:08:23;;;;;;;0.75;0.63;;;;;;;;;;5048130;28;20364;-87
2023/11/05 02:11:08;;;;;;;0.55;0.50;;;;;;;;;;5050393;28;20442;-86
2023/11/05 02:13:54;;;;;;;0.77;0.77;;;;;;;;;;5048976;28;20055;-88
2023/11/05 02:16:40;;;;;;;3.10;1.00;;;;;;;;;;5051373;28;20043;-87
2023/11/05 02:19:25;;;;;;;2.08;0.75;;;;;;;;;;5054103;28;20362;-87
2023/11/05 02:22:14;;;;;;;1.27;0.50;;;;;;;;;;5052982;28;20115;-87
2023/11/05 02:24:59;;;;;;;2.25;0.68;;;;;;;;;;5042651;28;20029;-88
2023/11/05 02:27:47;;;;;;;3.42;0.93;;;;;;;;;;5048114;28;20222;-87
2023/11/05 02:30:32;;;;;;;3.92;0.70;;;;;;;;;;5033913;28;20394;-88
2023/11/05 02:33:17;;;;;;;0.73;0.50;;;;;;;;;;5052630;28;20070;-87
2023/11/05 02:36:03;;;;;;;2.00;1.02;;;;;;;;;;5051123;28;20393;-87
2023/11/05 02:38:48;;;;;;;1.60;0.75;;;;;;;;;;5053286;28;20024;-87
2023/11/05 02:41:34;;;;;;;1.58;0.70;;;;;;;;;;5059032;28;20017;-88
2023/11/05 02:44:19;;;;;;;1.15;0.60;;;;;;;;;;5054417;28;20024;-87
2023/11/05 02:47:04;;;;;;;3.17;1.13;;;;;;;;;;5053957;28;20020;-87
2023/11/05 02:49:50;;;;;;;1.92;0.65;;;;;;;;;;5052282;28;20044;-86
2023/11/05 02:52:35;;;;;;;1.65;0.80;;;;;;;;;;5036161;28;20040;-86
2023/11/05 02:55:20;;;;;;;2.67;1.35;;;;;;;;;;5050915;28;20363;-87
2023/11/05 02:58:05;;;;;;;2.50;0.80;;;;;;;;;;5052009;28;20644;-87
2023/11/05 03:00:51;;;;;;;2.85;0.90;;;;;;;;;;5055728;28;20054;-87
2023/11/05 03:03:36;;;;;;;3.03;0.90;;;;;;;;;;5055047;28;20032;-88
2023/11/05 03:06:21;;;;;;;1.02;0.70;;;;;;;;;;5050786;28;20031;-86
2023/11/05 03:09:06;;;;;;;1.20;0.75;;;;;;;;;;5051470;28;20376;-88
2023/11/05 03:11:53;;;;;;;3.65;2.00;;;;;;;;;;5058907;28;20032;-88
2023/11/05 03:14:38;;;;;;;1.17;0.70;;;;;;;;;;5057516;28;20643;-88
2023/11/05 03:17:23;;;;;;;3.08;1.00;;;;;;;;;;5055632;28;20071;-88
2023/11/05 03:20:08;;;;;;;2.33;1.10;;;;;;;;;;5048136;28;20021;-86
2023/11/05 03:22:54;;;;;;;2.83;0.98;;;;;;;;;;5049358;28;20031;-86
2023/11/05 03:25:41;;;;;;;2.15;1.15;;;;;;;;;;5053708;28;20025;-88
2023/11/05 03:28:26;;;;;;;3.80;1.02;;;;;;;;;;5070677;28;20020;-87
2023/11/05 03:31:13;;;;;;;3.95;0.80;;;;;;;;;;5050129;28;20466;-87
2023/11/05 03:33:59;;;;;;;1.15;0.68;;;;;;;;;;5057473;28;20048;-86
2023/11/05 03:36:45;;;;;;;3.88;1.27;;;;;;;;;;5059092;28;20386;-86
2023/11/05 03:39:30;;;;;;;7.38;1.10;;;;;;;;;;5050174;28;20048;-87
2023/11/05 03:42:15;;;;;;;4.63;1.05;;;;;;;;;;5053211;28;20021;-86
2023/11/05 03:45:01;;;;;;;5.57;1.33;;;;;;;;;;5053748;28;20036;-86
2023/11/05 03:47:46;;;;;;;1.42;0.80;;;;;;;;;;5038483;28;20015;-86
2023/11/05 03:50:32;;;;;;;4.55;0.90;;;;;;;;;;5050823;28;20086;-86
2023/11/05 03:53:17;;;;;;;2.67;1.10;;;;;;;;;;5049844;28;20056;-86
2023/11/05 03:56:03;;;;;;;1.75;1.23;;;;;;;;;;5054054;28;20383;-88
2023/11/05 03:58:53;;;;;;;2.95;0.90;;;;;;;;;;5047588;28;20077;-87
2023/11/05 04:01:39;;;;;;;2.85;1.23;;;;;;;;;;5056086;28;20083;-86
2023/11/05 04:04:24;;;;;;;3.72;0.82;;;;;;;;;;5053342;28;20021;-87
2023/11/05 04:07:10;;;;;;;7.10;1.15;;;;;;;;;;5085498;28;20268;-88
2023/11/05 04:09:55;;;;;;;4.97;0.93;;;;;;;;;;5076041;28;20230;-87
2023/11/05 04:12:41;;;;;;;2.78;1.70;;;;;;;;;;5083136;28;20047;-87
2023/11/05 04:15:26;;;;;;;3.97;1.10;;;;;;;;;;5077031;28;20226;-86
2023/11/05 04:18:11;;;;;;;5.15;1.10;;;;;;;;;;5078328;28;20043;-86
2023/11/05 04:20:56;;;;;;;2.70;0.90;;;;;;;;;;5066561;28;20028;-86
2023/11/05 04:23:41;;;;;;;4.25;0.93;;;;;;;;;;5056554;28;20033;-86
2023/11/05 04:26:27;;;;;;;6.18;1.10;;;;;;;;;;5056848;28;20031;-86
2023/11/05 04:29:12;;;;;;;2.85;1.08;;;;;;;;;;5050525;28;20564;-86
2023/11/05 04:31:59;;;;;;;3.05;1.20;;;;;;;;;;5053116;28;20031;-86
2023/11/05 04:34:45;;;;;;;7.25;1.60;;;;;;;;;;5055047;28;20676;-85
2023/11/05 04:37:30;;;;;;;9.02;1.55;;;;;;;;;;5053069;28;20023;-87
2023/11/05 04:40:15;;;;;;;2.92;1.02;;;;;;;;;;5037474;28;20496;-87
2023/11/05 04:43:00;;;;;;;5.75;1.27;;;;;;;;;;5053827;28;20024;-86
2023/11/05 04:45:46;;;;;;;2.10;0.80;;;;;;;;;;5049714;28;20028;-86
2023/11/05 04:48:31;;;;;;;4.60;1.00;;;;;;;;;;5056935;28;20029;-85
2023/11/05 04:51:16;;;;;;;5.10;1.30;;;;;;;;;;5049232;28;20035;-87
2023/11/05 04:54:02;;;;;;;6.13;1.30;;;;;;;;;;5047865;28;20418;-87
2023/11/05 04:56:47;;;;;;;2.33;0.90;;;;;;;;;;5055751;28;20070;-87
2023/11/05 04:59:34;;;;;;;5.30;1.50;;;;;;;;;;5051339;28;20589;-87
2023/11/05 05:02:19;;;;;;;3.88;1.48;;;;;;;;;;5052554;28;20806;-85
2023/11/05 05:05:05;;;;;;;6.40;1.08;;;;;;;;;;5054208;28;20042;-86
2023/11/05 05:07:50;;;;;;;4.63;0.80;;;;;;;;;;5051612;28;20025;-87
2023/11/05 05:10:35;;;;;;;3.33;1.13;;;;;;;;;;5051277;28;20044;-87
2023/11/05 05:13:21;;;;;;;1.13;0.90;;;;;;;;;;5054071;28;20032;-88
2023/11/05 05:16:08;;;;;;;3.05;0.90;;;;;;;;;;5045478;28;20034;-88
2023/11/05 05:18:53;;;;;;;4.32;1.00;;;;;;;;;;5046472;28;20035;-88
2023/11/05 05:21:42;;;;;;;3.85;1.00;;;;;;;;;;5053532;28;20040;-87
2023/11/05 05:24:28;;;;;;;4.32;1.25;;;;;;;;;;5057742;28;20099;-87
2023/11/05 05:27:13;;;;;;;3.63;1.20;;;;;;;;;;5061000;28;20040;-87
2023/11/05 05:29:59;;;;;;;2.60;1.20;;;;;;;;;;5052759;28;20101;-88
2023/11/05 05:32:44;;;;;;;3.20;1.00;;;;;;;;;;5050883;28;20033;-87
2023/11/05 05:35:30;;;;;;;4.20;0.95;;;;;;;;;;5027946;28;20102;-89
2023/11/05 05:38:15;;;;;;;4.53;1.20;;;;;;;;;;5062245;28;20056;-87
2023/11/05 05:41:04;;;;;;;5.32;0.98;;;;;;;;;;5048001;28;20028;-86
2023/11/05 05:43:49;;;;;;;3.88;0.80;;;;;;;;;;5048787;28;20028;-87
2023/11/05 05:46:34;;;;;;;6.80;1.13;;;;;;;;;;5052295;28;20051;-86
2023/11/05 05:49:20;;;;;;;3.33;0.70;;;;;;;;;;5048836;28;20031;-85
2023/11/05 05:52:05;;;;;;;3.70;0.98;;;;;;;;;;5049428;28;20096;-84
2023/11/05 05:54:50;;;;;;;4.18;1.08;;;;;;;;;;5048760;28;20074;-85
2023/11/05 05:57:36;;;;;;;3.28;1.00;;;;;;;;;;5051205;28;20360;-85
2023/11/05 06:00:21;;;;;;;2.55;0.80;;;;;;;;;;5049160;28;20103;-86
2023/11/05 06:03:07;;;;;;;2.35;0.77;;;;;;;;;;5051325;28;20151;-87
2023/11/05 06:05:52;;;;;;;3.00;0.88;;;;;;;;;;5052136;28;20033;-87
2023/11/05 06:08:37;;;;;;;6.40;1.13;;;;;;;;;;5049943;28;20086;-86
2023/11/05 06:11:23;;;;;;;4.85;1.08;;;;;;;;;;5047914;28;20035;-87
2023/11/05 06:14:08;;;;;;;1.52;0.85;;;;;;;;;;5055639;28;20043;-86
2023/11/05 06:16:54;;;;;;;3.30;0.80;;;;;;;;;;5053050;28;20021;-86
2023/11/05 06:19:39;;;;;;;1.67;0.77;;;;;;;;;;5054897;28;20448;-87
2023/11/05 06:22:24;;;;;;;8.32;1.55;;;;;;;;;;5053912;28;20389;-86
2023/11/05 06:25:10;;;;;;;4.53;0.80;;;;;;;;;;5052902;28;20503;-87
2023/11/05 06:27:55;;;;;;;3.28;1.05;;;;;;;;;;5048698;28;20413;-86
2023/11/05 06:30:40;;;;;;;3.08;0.80;;;;;;;;;;5053180;28;20032;-86
2023/11/05 06:33:26;;;;;;;2.47;1.02;;;;;;;;;;5045059;28;20086;-85
2023/11/05 06:36:11;;;;;;;2.50;1.15;;;;;;;;;;5051876;28;20101;-85
2023/11/05 06:38:57;;;;;;;2.83;1.00;;;;;;;;;;5048689;28;20021;-84
2023/11/05 06:41:42;;;;;;;1.00;0.75;;;;;;;;;;5050748;28;20032;-84
2023/11/05 06:44:27;;;;;;;3.05;0.98;;;;;;;;;;5051057;28;20074;-85
2023/11/05 06:47:13;;;;;;;3.20;0.80;;;;;;;;;;5039723;28;20021;-83
2023/11/05 06:49:59;;;;;;;1.02;0.80;;;;;;;;;;5055109;28;20112;-83
2023/11/05 06:52:45;;;;;;;5.28;0.70;;;;;;;;;;5047446;28;20484;-83
2023/11/05 06:55:30;;;;;;;1.85;0.80;;;;;;;;;;5053907;28;20059;-84
2023/11/05 06:58:17;;;;;;;3.10;1.58;;;;;;;;;;5051855;28;20024;-84
2023/11/05 07:01:04;;;;;;;1.00;0.80;;;;;;;;;;5050759;28;20036;-84
2023/11/05 07:03:50;;;;;;;3.33;0.88;;;;;;;;;;5051142;28;20029;-84
2023/11/05 07:06:35;;;;;;;4.13;0.93;;;;;;;;;;5051998;28;20386;-84
2023/11/05 07:09:20;;;;;;;0.60;0.60;;;;;;;;;;5054076;28;20037;-84
2023/11/05 07:12:06;;;;;;;0.60;0.60;;;;;;;;;;5039771;28;20059;-83
2023/11/05 07:14:51;;;;;;;1.77;0.90;;;;;;;;;;5046728;28;20099;-83
2023/11/05 07:17:37;;;;;;;3.25;0.90;;;;;;;;;;5051559;28;20390;-85
2023/11/05 07:20:23;;;;;;;1.95;0.90;;;;;;;;;;5050989;28;20116;-84
2023/11/05 07:23:08;;;;;;;2.80;0.75;;;;;;;;;;5047954;28;20505;-85
2023/11/05 07:25:54;;;;;;;3.35;0.80;;;;;;;;;;5048007;28;20674;-88
2023/11/05 07:28:39;;;;;;;1.55;0.70;;;;;;;;;;5052735;28;20029;-88
2023/11/05 07:31:25;;;;;;;1.27;0.70;;;;;;;;;;5053143;28;20482;-89
2023/11/05 07:34:11;;;;;;;1.75;0.57;;;;;;;;;;5049358;28;20490;-87
2023/11/05 07:36:57;;;;;;;0.65;0.60;;;;;;;;;;5039979;28;20029;-86
2023/11/05 07:39:42;;;;;;;1.13;0.50;;;;;;;;;;5067177;28;20024;-87
2023/11/05 07:42:27;;;;;;;0.60;0.50;;;;;;;;;;5054804;28;20033;-88
2023/11/05 07:45:12;;;;;;;2.90;0.70;;;;;;;;;;5047879;28;20063;-87
2023/11/05 07:47:58;;;;;;;1.02;0.52;;;;;;;;;;5054567;28;20103;-87
2023/11/05 07:50:44;;;;;;;2.80;0.88;;;;;;;;;;5054653;28;20910;-86
2023/11/05 07:53:29;;;;;;;0.80;0.60;;;;;;;;;;5049962;28;20036;-86
2023/11/05 07:56:14;;;;;;;2.65;0.85;;;;;;;;;;5055398;28;20381;-86
2023/11/05 07:58:59;;;;;;;1.05;0.60;;;;;;;;;;5054423;28;20025;-87
2023/11/05 08:01:45;;;;;;;1.45;0.68;;;;;;;;;;5052570;28;20035;-88
2023/11/05 08:04:30;;;;;;;3.60;0.75;;;;;;;;;;5048309;28;20044;-88
2023/11/05 08:07:15;;;;;;;1.60;0.68;;;;;;;;;;5044257;28;20021;-89
2023/11/05 08:10:00;;;;;;;0.63;0.60;;;;;;;;;;5061826;28;20120;-90
2023/11/05 08:12:45;;;;;;;1.58;0.50;;;;;;;;;;5064938;28;20016;-88
2023/11/05 08:15:31;;;;;;;1.73;0.73;;;;;;;;;;5051915;28;20024;-90
2023/11/05 08:18:16;;;;;;;2.25;1.00;;;;;;;;;;5066324;28;20035;-91
2023/11/05 08:21:02;;;;;;;1.42;0.80;;;;;;;;;;5057929;28;20056;-91
2023/11/05 08:23:47;;;;;;;0.50;0.50;;;;;;;;;;5054199;28;20029;-89
2023/11/05 08:26:33;;;;;;;0.60;0.50;;;;;;;;;;5065566;28;20501;-90
2023/11/05 08:29:18;;;;;;;0.68;0.50;;;;;;;;;;5035022;28;20036;-86
2023/11/05 08:32:06;;;;;;;1.75;0.60;;;;;;;;;;5046418;28;20328;-87
2023/11/05 08:34:51;;;;;;;0.95;0.60;;;;;;;;;;5045797;28;20029;-88
2023/11/05 08:37:37;;;;;;;0.55;0.55;;;;;;;;;;5046407;28;20071;-88
2023/11/05 08:40:25;;;;;;;0.75;0.60;;;;;;;;;;5049838;28;20037;-87
2023/11/05 08:43:10;;;;;;;8.18;0.90;;;;;;;;;;5051499;28;20112;-88
2023/11/05 08:45:55;;;;;;;0.73;0.60;;;;;;;;;;5047288;28;20115;-90
2023/11/05 08:48:41;;;;;;;0.45;0.45;;;;;;;;;;5053379;28;20511;-90
2023/11/05 08:51:27;;;;;;;1.52;0.60;;;;;;;;;;5059276;28;20028;-90
2023/11/05 08:54:12;;;;;;;0.73;0.60;;;;;;;;;;5055655;28;20028;-90
2023/11/05 08:56:58;;;;;;;0.65;0.60;;;;;;;;;;5061894;28;20044;-85
2023/11/05 08:59:43;;;;;;;0.60;0.60;;;;;;;;;;5052781;28;20024;-91
2023/11/05 09:02:29;;;;;;;4.22;0.88;;;;;;;;;;5042522;28;20459;-90
2023/11/05 09:05:16;;;;;;;2.38;0.98;;;;;;;;;;5049353;28;20020;-88
2023/11/05 09:08:02;;;;;;;3.50;1.55;;;;;;;;;;5043929;28;20104;-88
2023/11/05 09:10:47;;;;;;;1.83;0.70;;;;;;;;;;5058351;28;20049;-89
2023/11/05 09:13:32;;;;;;;1.23;0.70;;;;;;;;;;5045119;28;20060;-87
2023/11/05 09:16:17;;;;;;;5.82;1.25;;;;;;;;;;5049641;28;20031;-83
2023/11/05 09:19:04;;;;;;;0.85;0.82;;;;;;;;;;5044892;28;20024;-84
2023/11/05 09:21:49;;;;;;;4.13;1.30;;;;;;;;;;5039996;28;20041;-81
2023/11/05 09:24:36;;;;;;;3.22;1.23;;;;;;;;;;5045054;28;20073;-83
2023/11/05 09:27:21;;;;;;;6.43;1.25;;;;;;;;;;5047781;28;20024;-82
2023/11/05 09:30:11;;;;;;;2.50;0.75;;;;;;;;;;5049029;28;20020;-82
2023/11/05 09:32:57;;;;;;;2.92;0.90;;;;;;;;;;5048381;28;20036;-82
2023/11/05 09:35:42;;;;;;;10.13;1.60;;;;;;;;;;5045850;28;20434;-84
2023/11/05 09:38:27;;;;;;;2.83;0.80;;;;;;;;;;5049355;28;20071;-84
2023/11/05 09:41:15;;;;;;;2.00;0.60;;;;;;;;;;5053707;28;20027;-82
2023/11/05 09:44:01;;;;;;;3.95;0.80;;;;;;;;;;5048166;28;20033;-82
2023/11/05 09:46:46;;;;;;;1.42;0.88;;;;;;;;;;5051918;28;20028;-81
2023/11/05 09:49:32;;;;;;;3.60;0.77;;;;;;;;;;5055071;28;20029;-80
2023/11/05 09:52:19;;;;;;;1.50;0.73;;;;;;;;;;5058021;28;20020;-81
2023/11/05 09:55:04;;;;;;;1.58;0.73;;;;;;;;;;5054595;28;20028;-81
2023/11/05 09:58:00;;;;;;;1.92;0.77;;;;;;;;;;5052465;28;20105;-82
2023/11/05 10:00:48;;;;;;;1.95;0.70;;;;;;;;;;5052213;28;20031;-82
2023/11/05 10:03:33;;;;;;;1.75;0.70;;;;;;;;;;5052625;28;20040;-82
2023/11/05 10:06:19;;;;;;;3.45;0.90;;;;;;;;;;5058937;28;20036;-80
2023/11/05 10:09:04;;;;;;;1.98;0.70;;;;;;;;;;5059607;28;20044;-82
2023/11/05 10:11:50;;;;;;;2.05;0.60;;;;;;;;;;5053046;28;20028;-81
2023/11/05 10:14:35;;;;;;;1.02;0.75;;;;;;;;;;5058441;28;20033;-80
2023/11/05 10:17:23;;;;;;;0.82;0.80;;;;;;;;;;5056751;28;20488;-81
2023/11/05 10:20:10;;;;;;;0.70;0.60;;;;;;;;;;5062404;28;20024;-81
2023/11/05 10:22:59;;;;;;;4.57;1.52;;;;;;;;;;5049737;28;20528;-82
2023/11/05 10:25:50;;;;;;;0.98;0.60;;;;;;;;;;5055505;28;20036;-80
2023/11/05 10:28:35;;;;;;;1.23;0.73;;;;;;;;;;5047765;28;20094;-83
2023/11/05 10:31:22;;;;;;;2.05;0.90;;;;;;;;;;5049116;28;20047;-79
2023/11/05 10:34:07;;;;;;;2.58;0.90;;;;;;;;;;5053194;28;20020;-78
2023/11/05 10:36:52;;;;;;;1.30;0.70;;;;;;;;;;5054154;28;20037;-78
2023/11/05 10:39:38;;;;;;;5.18;0.70;;;;;;;;;;5036399;28;20474;-77
2023/11/05 10:42:24;;;;;;;2.20;0.80;;;;;;;;;;5050720;28;20103;-78
2023/11/05 10:45:10;;;;;;;1.27;0.68;;;;;;;;;;5053509;28;20036;-79
2023/11/05 10:47:56;;;;;;;14.13;5.20;;;;;;;;;;5052564;28;20590;-78
2023/11/05 10:50:41;;;;;;;3.58;2.03;;;;;;;;;;5046381;28;20036;-81
2023/11/05 10:53:27;;;;;;;3.13;0.70;;;;;;;;;;5055697;28;20024;-79
2023/11/05 10:56:29;;;;;;;0.77;0.70;;;;;;;;;;5049503;28;20468;-78
2023/11/05 10:59:32;;;;;;;4.00;0.98;;;;;;;;;;5053971;28;20482;-78
2023/11/05 11:02:20;;;;;;;0.60;0.60;;;;;;;;;;5046482;28;20126;-79
2023/11/05 11:05:08;;;;;;;1.63;0.70;;;;;;;;;;5053930;28;20515;-79
2023/11/05 11:07:53;;;;;;;1.33;0.70;;;;;;;;;;5051322;28;20489;-79
2023/11/05 11:10:39;;;;;;;1.17;0.60;;;;;;;;;;5053933;28;20690;-78
2023/11/05 11:13:29;;;;;;;0.95;0.60;;;;;;;;;;5050750;28;20052;-79
2023/11/05 11:16:25;;;;;;;1.95;1.00;;;;;;;;;;5047807;28;20054;-87
2023/11/05 11:19:12;;;;;;;1.10;0.80;;;;;;;;;;5047983;28;20028;-85
2023/11/05 11:21:57;;;;;;;2.00;0.80;;;;;;;;;;5057645;28;20487;-87
2023/11/05 11:24:45;;;;;;;0.73;0.73;;;;;;;;;;5056022;28;20075;-87
2023/11/05 11:27:30;;;;;;;1.85;0.70;;;;;;;;;;5053658;28;20040;-87
2023/11/05 11:30:17;;;;;;;0.82;0.50;;;;;;;;;;5053958;28;20519;-84
2023/11/05 11:33:02;;;;;;;1.38;0.60;;;;;;;;;;5035067;28;20064;-83
2023/11/05 11:35:48;;;;;;;1.25;0.70;;;;;;;;;;5044757;28;20029;-86
2023/11/05 11:38:36;;;;;;;1.95;0.50;;;;;;;;;;5043923;28;20591;-88
2023/11/05 11:41:21;;;;;;;1.65;0.75;;;;;;;;;;5053031;28;20066;-86
2023/11/05 11:44:06;;;;;;;0.77;0.52;;;;;;;;;;5044920;28;20467;-86
2023/11/05 11:46:52;;;;;;;1.85;0.70;;;;;;;;;;5055425;28;20246;-86
2023/11/05 11:49:37;;;;;;;0.55;0.55;;;;;;;;;;5050426;28;20494;-90
2023/11/05 11:52:22;;;;;;;2.97;0.60;;;;;;;;;;5054912;28;20071;-86
2023/11/05 11:55:08;;;;;;;2.42;0.60;;;;;;;;;;5050683;28;20118;-86
2023/11/05 11:57:53;;;;;;;3.63;0.80;;;;;;;;;;5056045;28;20093;-87
2023/11/05 12:00:39;;;;;;;0.90;0.65;;;;;;;;;;5048072;28;20036;-84
2023/11/05 12:03:26;;;;;;;1.50;1.13;;;;;;;;;;5046230;28;20444;-84
2023/11/05 12:06:12;;;;;;;0.90;0.70;;;;;;;;;;5051702;28;20803;-85
2023/11/05 12:11:40;;;;;;;2.92;1.20;;;;;;;;;;5186704;22;20041;-85
2023/11/05 12:14:27;;;;;;;2.80;0.95;;;;;;;;;;5018116;28;20044;-85
2023/11/05 12:17:13;;;;;;;2.28;0.60;;;;;;;;;;5013432;28;20045;-85
2023/11/05 12:19:58;;;;;;;2.28;0.77;;;;;;;;;;5017904;28;20116;-87
2023/11/05 12:22:47;;;;;;;2.97;1.23;;;;;;;;;;5016817;28;20037;-86
2023/11/05 12:25:32;;;;;;;0.82;0.60;;;;;;;;;;5002862;28;20025;-85
2023/11/05 12:28:19;;;;;;;0.93;0.60;;;;;;;;;;5006512;28;20086;-85
2023/11/05 12:31:06;;;;;;;1.48;0.80;;;;;;;;;;5007410;28;20348;-84
2023/11/05 12:33:53;;;;;;;3.10;0.93;;;;;;;;;;5021199;28;20476;-81
2023/11/05 12:36:39;;;;;;;1.42;1.05;;;;;;;;;;5009077;28;20328;-83
2023/11/05 12:39:24;;;;;;;0.73;0.70;;;;;;;;;;5013603;28;20033;-91
2023/11/05 12:42:11;;;;;;;1.30;0.60;;;;;;;;;;5006046;28;20511;-86
2023/11/05 12:44:56;;;;;;;1.30;0.70;;;;;;;;;;5008455;28;20049;-86
2023/11/05 12:47:43;;;;;;;2.15;1.17;;;;;;;;;;5008788;28;20083;-87
2023/11/05 12:50:28;;;;;;;1.60;1.10;;;;;;;;;;5008348;28;20539;-88
2023/11/05 12:53:13;;;;;;;1.17;0.80;;;;;;;;;;5018938;28;20387;-86
2023/11/05 12:56:06;;;;;;;6.47;0.80;;;;;;;;;;5014447;28;20033;-86
2023/11/05 12:58:51;;;;;;;1.98;1.23;;;;;;;;;;5001228;28;20069;-87
2023/11/05 13:01:37;;;;;;;0.85;0.65;;;;;;;;;;4997273;28;20369;-87
2023/11/05 13:04:22;;;;;;;1.85;1.00;;;;;;;;;;5014374;28;20033;-86
2023/11/05 13:07:08;;;;;;;1.33;0.77;;;;;;;;;;5013186;28;20037;-86
2023/11/05 13:09:53;;;;;;;0.90;0.73;;;;;;;;;;5009863;28;20036;-89
2023/11/05 13:12:39;;;;;;;0.75;0.68;;;;;;;;;;5004163;28;20068;-84
2023/11/05 13:15:24;;;;;;;0.93;0.77;;;;;;;;;;5007514;28;20353;-88
2023/11/05 13:18:09;;;;;;;2.85;0.80;;;;;;;;;;4998722;28;20057;-87
2023/11/05 13:20:55;;;;;;;1.60;0.82;;;;;;;;;;5003367;28;20029;-89
2023/11/05 13:23:40;;;;;;;0.73;0.60;;;;;;;;;;5002260;28;20128;-86
2023/11/05 13:26:25;;;;;;;3.47;0.90;;;;;;;;;;5005474;28;20448;-88
2023/11/05 13:29:10;;;;;;;1.40;0.93;;;;;;;;;;4995214;28;20468;-87
2023/11/05 13:31:56;;;;;;;1.60;0.85;;;;;;;;;;4997601;28;20414;-89
2023/11/05 13:34:41;;;;;;;1.42;0.80;;;;;;;;;;4999224;28;20057;-88
2023/11/05 13:37:26;;;;;;;1.52;1.00;;;;;;;;;;4998728;28;20033;-87
2023/11/05 13:40:12;;;;;;;1.08;0.70;;;;;;;;;;4998008;28;20475;-85
2023/11/05 13:42:57;;;;;;;3.63;0.93;;;;;;;;;;5000961;28;20057;-86
2023/11/05 13:45:43;;;;;;;2.70;0.85;;;;;;;;;;4998279;28;20501;-87
2023/11/05 13:48:29;;;;;;;1.73;0.73;;;;;;;;;;5001700;28;20034;-87
2023/11/05 13:51:14;;;;;;;1.20;0.70;;;;;;;;;;5003384;28;20495;-87
2023/11/05 13:53:59;;;;;;;1.45;0.70;;;;;;;;;;5004711;28;20029;-87
2023/11/05 13:56:45;;;;;;;1.35;1.13;;;;;;;;;;5003049;28;20498;-87
2023/11/05 13:59:30;;;;;;;1.23;0.70;;;;;;;;;;4993164;28;20037;-89
2023/11/05 14:02:15;;;;;;;1.38;0.70;;;;;;;;;;4998833;28;20037;-87
2023/11/05 14:05:04;;;;;;;0.98;0.65;;;;;;;;;;4997907;28;20022;-83
2023/11/05 14:07:49;;;;;;;2.08;0.82;;;;;;;;;;5008548;28;20041;-85
2023/11/05 14:10:34;;;;;;;2.00;0.70;;;;;;;;;;5004336;28;20029;-83
2023/11/05 14:13:20;;;;;;;1.77;0.82;;;;;;;;;;5004116;28;20049;-83
2023/11/05 14:16:05;;;;;;;1.10;0.65;;;;;;;;;;5001473;28;20041;-84
2023/11/05 14:18:51;;;;;;;1.35;0.70;;;;;;;;;;5002959;28;20047;-89
2023/11/05 14:21:36;;;;;;;2.05;0.70;;;;;;;;;;5005241;28;20048;-83
2023/11/05 14:24:21;;;;;;;1.23;0.90;;;;;;;;;;5001790;28;20018;-84
2023/11/05 14:27:06;;;;;;;2.25;0.82;;;;;;;;;;4996418;28;20033;-84
2023/11/05 14:29:53;;;;;;;2.60;0.90;;;;;;;;;;4999480;28;20052;-87
2023/11/05 14:32:38;;;;;;;2.33;1.48;;;;;;;;;;5007900;28;20026;-83
2023/11/05 14:35:25;;;;;;;2.22;0.90;;;;;;;;;;5009811;28;20052;-82
2023/11/05 14:38:10;;;;;;;1.38;0.75;;;;;;;;;;5007496;28;20112;-79
2023/11/05 14:40:56;;;;;;;1.20;1.05;;;;;;;;;;5001300;28;20025;-80
2023/11/05 14:43:41;;;;;;;1.00;0.82;;;;;;;;;;5017162;28;20037;-82
2023/11/05 14:46:27;;;;;;;2.00;1.17;;;;;;;;;;5008398;28;20099;-83
2023/11/05 14:49:12;;;;;;;0.85;0.80;;;;;;;;;;5008842;28;20083;-81
2023/11/05 14:51:58;;;;;;;1.95;0.98;;;;;;;;;;5001249;28;20387;-79
2023/11/05 14:54:43;;;;;;;2.33;1.10;;;;;;;;;;5008860;28;20079;-79
2023/11/05 14:57:29;;;;;;;1.67;0.80;;;;;;;;;;5010633;28;20513;-81
2023/11/05 15:00:17;;;;;;;3.00;1.15;;;;;;;;;;4987174;28;20074;-78
2023/11/05 15:03:03;;;;;;;0.65;0.63;;;;;;;;;;5002592;28;20048;-79
2023/11/05 15:05:49;;;;;;;2.20;0.73;;;;;;;;;;5008173;28;20038;-82
2023/11/05 15:08:34;;;;;;;2.08;0.80;;;;;;;;;;5010953;28;20051;-83
2023/11/05 15:11:22;;;;;;;1.15;0.73;;;;;;;;;;5010798;28;20458;-82
2023/11/05 15:14:07;;;;;;;2.35;1.02;;;;;;;;;;5006386;28;20033;-82
2023/11/05 15:16:54;;;;;;;2.63;0.80;;;;;;;;;;5004318;28;20047;-84
2023/11/05 15:19:39;;;;;;;1.83;0.70;;;;;;;;;;5001663;28;20124;-83
2023/11/05 15:22:25;;;;;;;1.60;0.80;;;;;;;;;;5008978;28;20021;-82
2023/11/05 15:25:10;;;;;;;1.98;0.82;;;;;;;;;;4993544;28;20033;-84
2023/11/05 15:27:56;;;;;;;1.08;0.80;;;;;;;;;;5008690;28;20033;-82
2023/11/05 15:30:43;;;;;;;0.95;0.77;;;;;;;;;;4997343;28;20029;-82
2023/11/05 15:33:37;;;;;;;0.85;0.82;;;;;;;;;;5010196;28;20026;-81
2023/11/05 15:36:23;;;;;;;3.72;0.90;;;;;;;;;;5016610;28;20033;-83
2023/11/05 15:39:10;;;;;;;3.33;0.80;;;;;;;;;;5003316;28;20112;-83
2023/11/05 15:41:57;;;;;;;1.83;1.00;;;;;;;;;;5000221;28;20021;-84
2023/11/05 15:44:42;;;;;;;1.27;0.70;;;;;;;;;;5003094;28;20029;-82
2023/11/05 15:47:27;;;;;;;4.47;1.80;;;;;;;;;;4995157;28;20072;-83
2023/11/05 15:50:13;;;;;;;1.30;0.70;;;;;;;;;;4996154;28;20116;-83
2023/11/05 15:52:58;;;;;;;1.80;1.05;;;;;;;;;;5007869;28;20076;-85
2023/11/05 15:55:44;;;;;;;3.28;0.80;;;;;;;;;;5009055;28;20037;-89
2023/11/05 15:58:30;;;;;;;2.55;0.90;;;;;;;;;;4997456;28;20037;-89
2023/11/05 16:01:17;;;;;;;1.05;0.80;;;;;;;;;;4997403;28;20032;-86
2023/11/05 16:04:02;;;;;;;1.40;0.82;;;;;;;;;;5013240;28;20021;-85
2023/11/05 16:06:47;;;;;;;1.08;0.82;;;;;;;;;;5005982;28;20026;-86
2023/11/05 16:09:32;;;;;;;0.85;0.57;;;;;;;;;;5000029;28;20494;-88
2023/11/05 16:12:20;;;;;;;2.08;0.80;;;;;;;;;;5012122;28;20072;-87
2023/11/05 16:15:06;;;;;;;2.22;1.00;;;;;;;;;;4993986;28;20065;-87
2023/11/05 16:17:52;;;;;;;1.73;0.90;;;;;;;;;;5004287;28;20049;-86
2023/11/05 16:20:38;;;;;;;1.40;0.90;;;;;;;;;;4993380;28;20038;-87
2023/11/05 16:23:23;;;;;;;3.13;1.13;;;;;;;;;;4993053;28;20033;-86
2023/11/05 16:26:10;;;;;;;1.75;0.98;;;;;;;;;;4993400;28;20026;-87
2023/11/05 16:28:55;;;;;;;2.10;1.00;;;;;;;;;;4996107;28;20118;-86
2023/11/05 16:31:41;;;;;;;1.88;0.90;;;;;;;;;;4996600;28;20033;-86
2023/11/05 16:34:26;;;;;;;2.05;1.15;;;;;;;;;;5000425;28;20036;-86
2023/11/05 16:37:11;;;;;;;1.58;0.80;;;;;;;;;;5001827;28;20119;-86